AFL3110 URMM-URKA
Flight info
| Callsign | AFL3110 |
|---|---|
| Flight time | N/A |
| Altitude | 26000 |
| Route | SULOD5L SULOD A962 PELIR W54 NINOR W93 XT B820 KND W70 AGIDA AGIDA2B |
| Aircraft | B738/M-SDE2E3FGHIRWXY/LB1 |
Departure
| Time | 2026-04-25 18:54 |
|---|---|
| Airport | Mineralnye Vody Airport (URMM) |
Arrival
| Time | N/A |
|---|---|
| Airport | Anapa Vityazevo Airport (URKA) |
| Time | Latitude | Longitude | Altitude | Speed | Heading |
|---|---|---|---|---|---|
| 2026-04-25 17:51 | 44.21737 | 43.09029 | 1050 ft | 0 kts | 212° |
| 2026-04-25 18:32 | 44.21752 | 43.09043 | 1050 ft | 4 kts | 213° |
| 2026-04-25 18:33 | 44.21773 | 43.09063 | 1050 ft | 4 kts | 217° |
| 2026-04-25 18:33 | 44.21790 | 43.09083 | 1050 ft | 2 kts | 230° |
| 2026-04-25 18:33 | 44.21796 | 43.09097 | 1051 ft | 2 kts | 253° |
| 2026-04-25 18:33 | 44.21798 | 43.09112 | 1052 ft | 2 kts | 285° |
| 2026-04-25 18:34 | 44.21794 | 43.09127 | 1052 ft | 2 kts | 299° |
| 2026-04-25 18:34 | 44.21788 | 43.09140 | 1052 ft | 2 kts | 303° |
| 2026-04-25 18:34 | 44.21786 | 43.09144 | 1052 ft | 0 kts | 303° |
| 2026-04-25 18:34 | 44.21788 | 43.09140 | 1052 ft | 1 kts | 303° |
| 2026-04-25 18:35 | 44.21790 | 43.09135 | 1052 ft | 1 kts | 303° |
| 2026-04-25 18:35 | 44.21794 | 43.09128 | 1052 ft | 1 kts | 303° |
| 2026-04-25 18:35 | 44.21802 | 43.09110 | 1052 ft | 4 kts | 303° |
| 2026-04-25 18:35 | 44.21824 | 43.09062 | 1050 ft | 9 kts | 303° |
| 2026-04-25 18:36 | 44.21845 | 43.09018 | 1050 ft | 1 kts | 303° |
| 2026-04-25 18:36 | 44.21845 | 43.09017 | 1050 ft | 0 kts | 303° |
| 2026-04-25 18:36 | 44.21839 | 43.09031 | 1050 ft | 2 kts | 303° |
| 2026-04-25 18:37 | 44.21830 | 43.09050 | 1050 ft | 3 kts | 305° |
| 2026-04-25 18:37 | 44.21819 | 43.09072 | 1050 ft | 2 kts | 304° |
| 2026-04-25 18:37 | 44.21812 | 43.09085 | 1050 ft | 1 kts | 302° |
| 2026-04-25 18:37 | 44.21808 | 43.09095 | 1050 ft | 1 kts | 301° |
| 2026-04-25 18:38 | 44.21807 | 43.09096 | 1050 ft | 0 kts | 301° |
| 2026-04-25 18:43 | 44.21813 | 43.09083 | 1050 ft | 5 kts | 301° |
| 2026-04-25 18:43 | 44.21845 | 43.09058 | 1050 ft | 6 kts | 2° |
| 2026-04-25 18:43 | 44.21882 | 43.09080 | 1050 ft | 6 kts | 28° |
| 2026-04-25 18:44 | 44.21919 | 43.09108 | 1050 ft | 6 kts | 28° |
| 2026-04-25 18:44 | 44.21956 | 43.09130 | 1050 ft | 6 kts | 5° |
| 2026-04-25 18:44 | 44.21996 | 43.09111 | 1050 ft | 6 kts | 334° |
| 2026-04-25 18:44 | 44.22032 | 43.09084 | 1050 ft | 6 kts | 331° |
| 2026-04-25 18:45 | 44.22067 | 43.09057 | 1051 ft | 6 kts | 331° |
| 2026-04-25 18:45 | 44.22104 | 43.09029 | 1051 ft | 7 kts | 332° |
| 2026-04-25 18:45 | 44.22159 | 43.08989 | 1052 ft | 9 kts | 332° |
| 2026-04-25 18:45 | 44.22214 | 43.08949 | 1052 ft | 9 kts | 332° |
| 2026-04-25 18:46 | 44.22269 | 43.08910 | 1052 ft | 9 kts | 332° |
| 2026-04-25 18:46 | 44.22336 | 43.08860 | 1051 ft | 12 kts | 332° |
| 2026-04-25 18:46 | 44.22405 | 43.08809 | 1051 ft | 11 kts | 332° |
| 2026-04-25 18:46 | 44.22467 | 43.08745 | 1054 ft | 11 kts | 321° |
| 2026-04-25 18:47 | 44.22520 | 43.08658 | 1054 ft | 13 kts | 298° |
| 2026-04-25 18:47 | 44.22568 | 43.08546 | 1052 ft | 13 kts | 302° |
| 2026-04-25 18:47 | 44.22602 | 43.08471 | 1054 ft | 0 kts | 302° |
| 2026-04-25 18:51 | 44.22649 | 43.08366 | 1051 ft | 17 kts | 302° |
| 2026-04-25 18:51 | 44.22730 | 43.08187 | 1049 ft | 23 kts | 302° |
| 2026-04-25 18:52 | 44.22815 | 43.08000 | 1047 ft | 22 kts | 302° |
| 2026-04-25 18:52 | 44.22896 | 43.07822 | 1050 ft | 22 kts | 302° |
| 2026-04-25 18:52 | 44.22981 | 43.07648 | 1050 ft | 21 kts | 306° |
| 2026-04-25 18:52 | 44.23021 | 43.07544 | 1051 ft | 8 kts | 222° |
| 2026-04-25 18:53 | 44.22990 | 43.07595 | 1050 ft | 12 kts | 102° |
| 2026-04-25 18:53 | 44.22964 | 43.07678 | 1049 ft | 0 kts | 122° |
| 2026-04-25 18:53 | 44.22962 | 43.07682 | 1049 ft | 7 kts | 122° |
| 2026-04-25 18:53 | 44.22785 | 43.08069 | 1048 ft | 87 kts | 122° |
| 2026-04-25 18:54 | 44.21692 | 43.10510 | 1447 ft | 180 kts | 122° |
| 2026-04-25 18:54 | 44.21050 | 43.11926 | 2637 ft | 168 kts | 122° |
| 2026-04-25 18:54 | 44.20401 | 43.13350 | 3309 ft | 185 kts | 123° |
| 2026-04-25 18:55 | 44.19638 | 43.15005 | 3605 ft | 217 kts | 123° |
| 2026-04-25 18:55 | 44.18779 | 43.16883 | 3907 ft | 240 kts | 123° |
| 2026-04-25 18:55 | 44.17834 | 43.18965 | 4240 ft | 268 kts | 123° |
| 2026-04-25 18:55 | 44.16821 | 43.21201 | 4998 ft | 277 kts | 123° |
| 2026-04-25 18:56 | 44.15808 | 43.23524 | 5825 ft | 285 kts | 116° |
| 2026-04-25 18:56 | 44.15400 | 43.26224 | 6590 ft | 291 kts | 84° |
| 2026-04-25 18:56 | 44.15975 | 43.28901 | 7366 ft | 291 kts | 55° |
| 2026-04-25 18:56 | 44.17332 | 43.30939 | 8123 ft | 288 kts | 27° |
| 2026-04-25 18:57 | 44.19170 | 43.31904 | 8898 ft | 281 kts | 360° |
| 2026-04-25 18:57 | 44.21064 | 43.31620 | 9703 ft | 272 kts | 333° |
| 2026-04-25 18:57 | 44.22676 | 43.30306 | 10385 ft | 272 kts | 314° |
| 2026-04-25 18:57 | 44.23122 | 43.29706 | 10462 ft | 278 kts | 308° |
| 2026-04-25 18:58 | 44.25281 | 43.25920 | 10829 ft | 316 kts | 304° |
| 2026-04-25 18:58 | 44.28030 | 43.20973 | 12136 ft | 329 kts | 306° |
| 2026-04-25 18:58 | 44.29457 | 43.18451 | 12918 ft | 333 kts | 306° |
| 2026-04-25 18:59 | 44.32244 | 43.13184 | 14330 ft | 341 kts | 301° |
| 2026-04-25 18:59 | 44.34741 | 43.07477 | 15727 ft | 346 kts | 300° |
| 2026-04-25 19:00 | 44.37311 | 43.01712 | 17074 ft | 353 kts | 300° |
| 2026-04-25 19:00 | 44.38618 | 42.98795 | 17753 ft | 356 kts | 300° |
| 2026-04-25 19:01 | 44.41269 | 42.92876 | 18977 ft | 362 kts | 300° |
| 2026-04-25 19:01 | 44.42610 | 42.89878 | 19538 ft | 365 kts | 300° |
| 2026-04-25 19:01 | 44.43503 | 42.87879 | 19912 ft | 367 kts | 300° |
| 2026-04-25 19:01 | 44.44863 | 42.84833 | 20482 ft | 370 kts | 300° |
| 2026-04-25 19:02 | 44.47885 | 42.78919 | 21517 ft | 382 kts | 315° |
| 2026-04-25 19:02 | 44.49976 | 42.76600 | 22137 ft | 384 kts | 319° |
| 2026-04-25 19:02 | 44.52088 | 42.74320 | 22883 ft | 381 kts | 318° |
| 2026-04-25 19:03 | 44.55529 | 42.70524 | 24092 ft | 376 kts | 317° |
| 2026-04-25 19:03 | 44.58263 | 42.67453 | 24847 ft | 375 kts | 317° |
| 2026-04-25 19:03 | 44.60306 | 42.65177 | 25398 ft | 375 kts | 319° |
| 2026-04-25 19:04 | 44.64512 | 42.60819 | 25959 ft | 375 kts | 320° |
| 2026-04-25 19:04 | 44.66611 | 42.58662 | 25990 ft | 374 kts | 320° |
| 2026-04-25 19:05 | 44.70804 | 42.54299 | 25989 ft | 375 kts | 320° |
| 2026-04-25 19:05 | 44.74420 | 42.49244 | 25991 ft | 367 kts | 299° |
| 2026-04-25 19:05 | 44.75552 | 42.46038 | 25983 ft | 365 kts | 288° |
| 2026-04-25 19:06 | 44.76180 | 42.42584 | 25990 ft | 364 kts | 281° |
| 2026-04-25 19:06 | 44.77175 | 42.35579 | 25982 ft | 365 kts | 281° |
| 2026-04-25 19:06 | 44.77670 | 42.32068 | 25979 ft | 365 kts | 281° |
| 2026-04-25 19:07 | 44.78676 | 42.25065 | 25980 ft | 365 kts | 281° |
| 2026-04-25 19:07 | 44.79186 | 42.21564 | 25980 ft | 365 kts | 281° |
| 2026-04-25 19:08 | 44.80208 | 42.14555 | 25971 ft | 365 kts | 281° |
| 2026-04-25 19:08 | 44.80711 | 42.11104 | 25975 ft | 365 kts | 281° |
| 2026-04-25 19:09 | 44.82233 | 42.00609 | 25970 ft | 364 kts | 281° |
| 2026-04-25 19:09 | 44.82570 | 41.98277 | 25980 ft | 365 kts | 281° |
| 2026-04-25 19:09 | 44.83564 | 41.90040 | 25976 ft | 365 kts | 276° |
| 2026-04-25 19:10 | 44.83799 | 41.86478 | 25968 ft | 366 kts | 275° |
| 2026-04-25 19:10 | 44.84018 | 41.82903 | 25969 ft | 366 kts | 275° |
| 2026-04-25 19:10 | 44.84236 | 41.79327 | 25966 ft | 366 kts | 275° |
| 2026-04-25 19:10 | 44.84457 | 41.75750 | 25965 ft | 366 kts | 275° |
| 2026-04-25 19:11 | 44.84682 | 41.72169 | 25966 ft | 366 kts | 275° |
| 2026-04-25 19:11 | 44.84905 | 41.68650 | 25966 ft | 366 kts | 275° |
| 2026-04-25 19:11 | 44.85133 | 41.65079 | 25967 ft | 365 kts | 275° |
| 2026-04-25 19:11 | 44.85360 | 41.61502 | 25966 ft | 365 kts | 275° |
| 2026-04-25 19:12 | 44.85586 | 41.57932 | 25970 ft | 365 kts | 275° |
| 2026-04-25 19:12 | 44.85812 | 41.54366 | 25973 ft | 365 kts | 275° |
| 2026-04-25 19:12 | 44.86036 | 41.50800 | 25966 ft | 365 kts | 275° |
| 2026-04-25 19:12 | 44.86259 | 41.47234 | 25963 ft | 365 kts | 275° |
| 2026-04-25 19:13 | 44.86478 | 41.43718 | 25964 ft | 365 kts | 275° |
| 2026-04-25 19:13 | 44.86698 | 41.40154 | 25952 ft | 364 kts | 275° |
| 2026-04-25 19:13 | 44.86917 | 41.36598 | 25959 ft | 364 kts | 275° |
| 2026-04-25 19:13 | 44.87136 | 41.33044 | 25964 ft | 364 kts | 275° |
| 2026-04-25 19:14 | 44.87353 | 41.29481 | 25968 ft | 364 kts | 275° |
| 2026-04-25 19:14 | 44.87497 | 41.27121 | 25969 ft | 365 kts | 275° |
| 2026-04-25 19:14 | 44.87785 | 41.22354 | 25967 ft | 365 kts | 275° |
| 2026-04-25 19:14 | 44.88001 | 41.18786 | 25956 ft | 365 kts | 275° |